Terminal Aerodrome Forecast
Issued by NWS Jackson, MS

Current Version | Previous Version | Text Only | Print | Product List | Glossary On
Versions: 1 2 3 4 5 6 7 8 9 10 11 12 13 14 15 16 17 18
000
FTUS44 KJAN 221100
TAFJAN
TAF
KJAN 221123Z 2212/2312 04005KT P6SM SCT050
     FM222000 05005KT P6SM VCTS BKN050CB BKN150
     FM230200 VRB03KT P6SM SCT150
     FM231000 00000KT 5SM BR SKC=

USA.gov is the U.S. government's official web portal to all federal, state and local government web resources and services.